createdAt,value
2022-08-25T00:03:35.985Z,100381.70
2022-08-25T00:07:41.707Z,100382.17
2022-08-25T00:11:45.618Z,100377.33
2022-08-25T00:15:47.958Z,100379.28
2022-08-25T00:19:50.307Z,100380.67
2022-08-25T00:23:53.342Z,100378.30
2022-08-25T00:27:55.571Z,100372.55
2022-08-25T00:31:58.967Z,100374.49
2022-08-25T00:36:01.087Z,100379.46
2022-08-25T00:40:06.360Z,100383.52
2022-08-25T00:44:12.097Z,100386.11
2022-08-25T00:48:14.434Z,100387.34
2022-08-25T00:52:23.216Z,100389.02
2022-08-25T00:56:26.981Z,100391.55
2022-08-25T01:00:37.130Z,100389.22
2022-08-25T01:04:39.275Z,100388.33
2022-08-25T01:08:41.762Z,100384.70
2022-08-25T01:12:44.289Z,100382.77
2022-08-25T01:16:50.957Z,100382.93
2022-08-25T01:20:59.761Z,100383.57
2022-08-25T01:25:08.334Z,100382.30
2022-08-25T01:29:26.728Z,100383.07
2022-08-25T01:33:54.223Z,100382.09
2022-08-25T01:37:56.430Z,100379.90
2022-08-25T01:42:10.996Z,100377.05
2022-08-25T01:46:33.069Z,100379.58
2022-08-25T01:50:35.320Z,100372.91
2022-08-25T01:54:37.558Z,100377.98
2022-08-25T01:58:43.250Z,100372.88
2022-08-25T02:02:45.869Z,100370.73
2022-08-25T02:06:49.466Z,100372.73
2022-08-25T02:10:55.361Z,100373.73
2022-08-25T02:14:59.276Z,100375.66
2022-08-25T02:19:01.643Z,100372.42
2022-08-25T02:23:04.606Z,100369.63
2022-08-25T02:27:06.748Z,100371.77
2022-08-25T02:31:09.538Z,100368.71
2022-08-25T02:35:12.888Z,100373.29
2022-08-25T02:39:15.027Z,100370.91
2022-08-25T02:43:17.093Z,100377.69
2022-08-25T02:47:20.230Z,100383.66
2022-08-25T02:51:29.920Z,100372.18
2022-08-25T02:55:34.518Z,100369.30
2022-08-25T02:59:38.813Z,100374.02
2022-08-25T03:03:43.965Z,100361.58
2022-08-25T03:07:46.300Z,100360.48
2022-08-25T03:11:49.281Z,100361.44
2022-08-25T03:15:52.613Z,100357.73
2022-08-25T03:19:54.851Z,100352.64
2022-08-25T03:23:56.999Z,100354.69
2022-08-25T03:27:59.304Z,100355.94
2022-08-25T03:32:01.922Z,100357.55
2022-08-25T03:36:05.557Z,100361.86
2022-08-25T03:40:15.377Z,100358.76
2022-08-25T03:44:21.340Z,100356.03
2022-08-25T03:48:23.422Z,100356.10
2022-08-25T03:52:26.407Z,100361.33
2022-08-25T03:56:28.629Z,100359.45
2022-08-25T04:00:30.883Z,100360.84
2022-08-25T04:04:33.713Z,100360.67
2022-08-25T04:08:36.468Z,100358.86
2022-08-25T04:12:38.773Z,100364.62
2022-08-25T04:16:41.113Z,100361.86
2022-08-25T04:20:46.553Z,100364.42
2022-08-25T04:24:49.212Z,100363.84
2022-08-25T04:28:52.620Z,100364.77
2022-08-25T04:32:54.842Z,100365.19
2022-08-25T04:37:01.402Z,100362.36
2022-08-25T04:41:06.439Z,100355.74
2022-08-25T04:45:09.639Z,100354.84
2022-08-25T04:49:12.251Z,100357.13
2022-08-25T04:53:21.233Z,100357.35
2022-08-25T04:57:23.442Z,100356.20
2022-08-25T05:01:26.126Z,100352.80
2022-08-25T05:05:28.350Z,100352.16
2022-08-25T05:09:32.442Z,100351.50
2022-08-25T05:13:36.425Z,100348.77
2022-08-25T05:17:39.975Z,100350.98
2022-08-25T05:21:42.876Z,100358.64
2022-08-25T05:25:45.123Z,100358.13
2022-08-25T05:29:47.319Z,100356.80
2022-08-25T05:33:50.706Z,100357.44
2022-08-25T05:37:52.877Z,100353.38
2022-08-25T05:41:55.267Z,100347.69
2022-08-25T05:45:58.817Z,100351.27
2022-08-25T05:50:02.440Z,100357.64
2022-08-25T05:54:05.041Z,100356.67
2022-08-25T05:58:07.371Z,100353.30
2022-08-25T06:02:30.715Z,100354.02
2022-08-25T06:06:32.931Z,100354.91
2022-08-25T06:10:37.794Z,100353.67
2022-08-25T06:14:46.201Z,100359.73
2022-08-25T06:18:48.365Z,100359.32
2022-08-25T06:22:50.925Z,100360.93
2022-08-25T06:26:55.460Z,100361.17
2022-08-25T06:30:59.848Z,100357.05
2022-08-25T06:35:15.985Z,100357.52
2022-08-25T06:39:18.096Z,100357.61
2022-08-25T06:43:22.798Z,100360.31
2022-08-25T06:47:24.920Z,100355.14
2022-08-25T06:51:27.190Z,100358.52
2022-08-25T06:55:29.170Z,100366.00
2022-08-25T06:59:32.336Z,100366.31
2022-08-25T07:03:34.664Z,100374.48
2022-08-25T07:07:43.729Z,100377.79
2022-08-25T07:11:46.552Z,100380.79
2022-08-25T07:15:59.836Z,100375.47
2022-08-25T07:20:02.107Z,100379.33
2022-08-25T07:24:26.501Z,100381.29
2022-08-25T07:28:28.592Z,100386.66
2022-08-25T07:32:30.672Z,100384.21
2022-08-25T07:36:33.190Z,100384.66
2022-08-25T07:40:37.728Z,100389.34
2022-08-25T07:44:44.857Z,100387.30
2022-08-25T07:48:53.210Z,100393.81
2022-08-25T07:52:57.546Z,100394.08
2022-08-25T07:56:59.664Z,100393.10
2022-08-25T08:01:02.691Z,100390.62
2022-08-25T08:05:05.727Z,100392.48
2022-08-25T08:09:13.172Z,100389.77
2022-08-25T08:13:18.425Z,100391.33
2022-08-25T08:17:21.888Z,100389.70
2022-08-25T08:21:30.634Z,100391.65
2022-08-25T08:25:32.832Z,100390.31
2022-08-25T08:29:36.454Z,100384.73
2022-08-25T08:33:40.818Z,100386.20
2022-08-25T08:37:43.986Z,100385.71
2022-08-25T08:42:18.490Z,100387.20
2022-08-25T08:46:23.163Z,100392.06
2022-08-25T08:50:42.163Z,100390.30
2022-08-25T08:54:50.366Z,100387.81
2022-08-25T08:59:00.540Z,100385.74
2022-08-25T09:03:27.702Z,100387.05
2022-08-25T09:07:42.083Z,100386.25
2022-08-25T09:11:47.478Z,100383.48
2022-08-25T09:16:23.320Z,100381.08
2022-08-25T09:21:21.615Z,100374.16
2022-08-25T09:30:05.383Z,100371.42
2022-08-25T09:34:19.863Z,100375.27
2022-08-25T09:38:23.294Z,100378.14
2022-08-25T09:42:50.350Z,100373.05
2022-08-25T09:47:15.066Z,100374.25
2022-08-25T09:51:42.844Z,100369.80
2022-08-25T09:56:00.203Z,100365.30
2022-08-25T10:00:33.742Z,100365.66
2022-08-25T10:04:38.658Z,100358.96
2022-08-25T10:08:45.157Z,100353.35
2022-08-25T10:12:51.085Z,100347.57
2022-08-25T10:17:13.590Z,100348.23
2022-08-25T10:21:18.594Z,100342.53
2022-08-25T10:25:28.456Z,100336.08
2022-08-25T10:29:52.704Z,100335.80
2022-08-25T10:34:20.956Z,100329.48
2022-08-25T10:38:36.615Z,100323.63
2022-08-25T10:43:19.562Z,100318.84
2022-08-25T10:47:57.157Z,100312.21
2022-08-25T10:52:10.184Z,100308.73
2022-08-25T10:56:40.130Z,100305.06
2022-08-25T11:01:03.671Z,100307.04
2022-08-25T11:05:45.098Z,100299.59
2022-08-25T11:09:52.693Z,100301.20
2022-08-25T11:14:01.181Z,100298.06
2022-08-25T11:18:14.704Z,100293.58
2022-08-25T11:22:27.039Z,100289.34
2022-08-25T11:26:36.944Z,100290.42
2022-08-25T11:30:40.805Z,100287.50
2022-08-25T11:34:43.849Z,100284.79
2022-08-25T11:38:52.419Z,100280.05
2022-08-25T11:43:46.273Z,100273.97
2022-08-25T11:48:15.053Z,100269.64
2022-08-25T11:52:35.707Z,100268.55
2022-08-25T11:56:41.400Z,100269.97
2022-08-25T12:00:44.165Z,100269.17
2022-08-25T12:04:46.364Z,100269.27
2022-08-25T12:09:12.815Z,100265.85
2022-08-25T12:13:41.565Z,100265.65
2022-08-25T12:17:44.182Z,100263.54
2022-08-25T12:21:46.405Z,100267.15
2022-08-25T12:25:53.693Z,100270.66
2022-08-25T12:29:55.513Z,100266.54
2022-08-25T12:34:30.685Z,100266.56
2022-08-25T12:38:46.284Z,100269.02
2022-08-25T12:43:06.347Z,100266.61
2022-08-25T12:47:24.304Z,100259.52
2022-08-25T12:51:32.557Z,100257.89
2022-08-25T12:55:36.021Z,100255.61
2022-08-25T12:59:45.763Z,100255.80
2022-08-25T13:04:00.698Z,100250.52
2022-08-25T13:08:21.861Z,100240.84
2022-08-25T13:12:32.216Z,100239.52
2022-08-25T13:16:34.775Z,100240.45
2022-08-25T13:20:36.845Z,100242.11
2022-08-25T13:24:44.494Z,100239.27
2022-08-25T13:28:54.778Z,100236.70
2022-08-25T13:32:57.946Z,100235.70
2022-08-25T13:37:27.250Z,100230.02
2022-08-25T13:41:33.887Z,100229.27
2022-08-25T13:45:46.359Z,100226.61
2022-08-25T13:49:48.443Z,100221.75
2022-08-25T13:54:00.304Z,100224.02
2022-08-25T13:58:03.707Z,100222.69
2022-08-25T14:02:07.819Z,100215.16
2022-08-25T14:06:17.427Z,100208.55
2022-08-25T14:10:34.741Z,100205.44
2022-08-25T14:14:40.666Z,100204.44
2022-08-25T14:18:51.468Z,100202.08
2022-08-25T14:22:58.319Z,100200.83
2022-08-25T14:27:04.042Z,100198.65
2022-08-25T14:31:09.164Z,100196.44
2022-08-25T14:35:11.719Z,100199.54
2022-08-25T14:39:19.660Z,100202.65
2022-08-25T14:43:31.289Z,100199.27
2022-08-25T14:47:36.729Z,100200.84
2022-08-25T14:51:43.406Z,100198.02
2022-08-25T14:55:45.777Z,100194.70
2022-08-25T14:59:48.156Z,100194.08
2022-08-25T15:03:55.357Z,100194.98
2022-08-25T15:08:16.373Z,100195.41
2022-08-25T15:12:37.398Z,100190.86
2022-08-25T15:16:51.101Z,100188.66
2022-08-25T15:20:53.440Z,100187.23
2022-08-25T15:24:55.610Z,100189.61
2022-08-25T15:28:57.727Z,100185.44
2022-08-25T15:32:59.870Z,100183.89
2022-08-25T15:37:11.978Z,100185.70
2022-08-25T15:41:14.093Z,100186.92
2022-08-25T15:45:16.329Z,100186.11
2022-08-25T15:49:23.494Z,100181.41
2022-08-25T15:53:29.382Z,100178.55
2022-08-25T15:57:31.622Z,100171.35
2022-08-25T16:01:37.213Z,100172.60
2022-08-25T16:05:47.885Z,100170.20
2022-08-25T16:09:51.138Z,100170.23
2022-08-25T16:13:54.446Z,100167.29
2022-08-25T16:18:00.079Z,100167.64
2022-08-25T16:22:03.027Z,100159.30
2022-08-25T16:26:10.649Z,100164.73
2022-08-25T16:30:17.604Z,100159.27
2022-08-25T16:34:20.191Z,100162.05
2022-08-25T16:38:22.478Z,100164.70
2022-08-25T16:42:24.684Z,100166.54
2022-08-25T16:46:29.148Z,100165.45
2022-08-25T16:50:32.721Z,100170.69
2022-08-25T16:54:58.332Z,100171.73
2022-08-25T16:59:02.556Z,100172.39
2022-08-25T17:03:06.093Z,100172.33
2022-08-25T17:07:08.470Z,100174.41
2022-08-25T17:11:13.770Z,100177.95
2022-08-25T17:15:21.966Z,100176.38
2022-08-25T17:19:27.325Z,100179.21
2022-08-25T17:23:30.827Z,100181.16
2022-08-25T17:27:33.312Z,100185.45
2022-08-25T17:31:39.356Z,100192.59
2022-08-25T17:35:44.058Z,100191.41
2022-08-25T17:39:46.251Z,100199.16
2022-08-25T17:43:52.478Z,100196.11
2022-08-25T17:47:55.920Z,100203.81
2022-08-25T17:51:58.973Z,100204.00
2022-08-25T17:56:06.771Z,100206.30
2022-08-25T18:00:11.699Z,100207.60
2022-08-25T18:04:17.937Z,100210.38
2022-08-25T18:08:21.979Z,100212.00
2022-08-25T18:12:35.858Z,100213.84
2022-08-25T18:16:39.082Z,100213.10
2022-08-25T18:20:45.622Z,100219.73
2022-08-25T18:24:47.855Z,100217.83
2022-08-25T18:28:49.974Z,100216.61
2022-08-25T18:32:52.169Z,100217.33
2022-08-25T18:36:54.486Z,100216.71
2022-08-25T18:41:02.557Z,100219.88
2022-08-25T18:45:06.473Z,100221.39
2022-08-25T18:49:08.762Z,100213.68
2022-08-25T18:53:12.130Z,100210.77
2022-08-25T18:57:14.303Z,100212.96
2022-08-25T19:01:18.536Z,100216.05
2022-08-25T19:05:25.049Z,100221.33
2022-08-25T19:09:27.644Z,100219.55
2022-08-25T19:13:30.657Z,100220.35
2022-08-25T19:17:37.457Z,100221.96
2022-08-25T19:21:41.609Z,100224.13
2022-08-25T19:25:43.754Z,100224.52
2022-08-25T19:29:45.876Z,100225.54
2022-08-25T19:33:50.530Z,100224.91
2022-08-25T19:37:54.532Z,100220.83
2022-08-25T19:41:56.818Z,100218.35
2022-08-25T19:45:59.585Z,100219.63
2022-08-25T19:50:01.770Z,100218.42
2022-08-25T19:54:05.222Z,100216.48
2022-08-25T19:58:11.072Z,100214.30
2022-08-25T20:02:19.899Z,100210.41
2022-08-25T20:06:22.209Z,100212.36
2022-08-25T20:10:27.595Z,100210.39
2022-08-25T20:14:32.493Z,100210.02
2022-08-25T20:18:34.646Z,100207.69
2022-08-25T20:22:37.928Z,100213.02
2022-08-25T20:26:40.836Z,100210.21
2022-08-25T20:31:13.483Z,100218.69
2022-08-25T20:35:17.595Z,100219.16
2022-08-25T20:39:21.156Z,100222.52
2022-08-25T20:43:23.318Z,100220.69
2022-08-25T20:47:25.607Z,100222.85
2022-08-25T20:51:28.427Z,100220.58
2022-08-25T20:55:31.773Z,100216.68
2022-08-25T20:59:42.451Z,100211.43
2022-08-25T21:03:45.384Z,100205.25
2022-08-25T21:07:50.086Z,100204.48
2022-08-25T21:11:54.462Z,100205.11
2022-08-25T21:15:56.528Z,100206.94
2022-08-25T21:19:58.694Z,100203.70
2022-08-25T21:24:00.951Z,100202.00
2022-08-25T21:28:03.242Z,100202.54
2022-08-25T21:32:05.531Z,100203.98
2022-08-25T21:36:09.763Z,100202.09
2022-08-25T21:40:12.369Z,100198.16
2022-08-25T21:44:14.574Z,100202.63
2022-08-25T21:48:16.775Z,100205.97
2022-08-25T21:52:18.976Z,100204.86
2022-08-25T21:56:22.209Z,100203.38
2022-08-25T22:00:28.725Z,100195.39
2022-08-25T22:04:31.944Z,100199.19
2022-08-25T22:08:35.885Z,100197.90
2022-08-25T22:12:38.967Z,100189.48
2022-08-25T22:16:42.214Z,100184.80
2022-08-25T22:20:44.466Z,100179.33
2022-08-25T22:24:46.612Z,100169.61
2022-08-25T22:28:48.870Z,100171.93
2022-08-25T22:32:52.529Z,100170.59
2022-08-25T22:36:54.565Z,100166.89
2022-08-25T22:41:02.284Z,100164.79
2022-08-25T22:45:06.718Z,100165.09
2022-08-25T22:49:08.911Z,100164.91
2022-08-25T22:53:11.317Z,100158.70
2022-08-25T22:57:13.398Z,100158.91
2022-08-25T23:01:18.481Z,100157.55
2022-08-25T23:05:20.781Z,100153.90
2022-08-25T23:09:23.220Z,100149.87
2022-08-25T23:13:34.108Z,100140.08
2022-08-25T23:17:37.334Z,100139.42
2022-08-25T23:21:58.570Z,100140.68
2022-08-25T23:26:00.768Z,100140.63
2022-08-25T23:30:03.625Z,100138.79
2022-08-25T23:34:06.429Z,100143.23
2022-08-25T23:38:10.808Z,100143.65
2022-08-25T23:42:12.958Z,100147.52
2022-08-25T23:46:17.739Z,100145.70
2022-08-25T23:50:19.839Z,100141.35
2022-08-25T23:54:22.294Z,100138.48
2022-08-25T23:58:33.342Z,100139.36
